Tagish, Canada
Current Conditions -  °F | °C
As of 11:45 PM on Sunday 21 Dec 2014 (Local Time) from CYXY Reporting Station
Blowing Snow Blowing Snow  
Wind Chill:   Ceiling: 600
Heat Index: 21°   Visibility: 10mi
Dew Point: 19°   Wind: 21mph
Humidity: 93%   Direction: 180°S
Pressure: 29.52"   Gusts: NA
Location:  60.3°N, 134.27°W
Report Text: CYXY 220745Z 18018KT 10SM DRSN BKN006 OVC100 M06/M07 A2952 RMK ST5AC3 SLP043
Loading
Personal Weather Stations






























Interactive Weather Map New forecast layout! Learn more

10-Day Weather Forecast

Advertisements
Track Severe Weather on mobile